Huvudsida
METAR-TAF:

METAR-TAF

Flygplatser :

Pecs - Pogany Airport

Pécs, Ungern

latitud: 46-06N, longitud: 018-14E, höjd: 201 m

Aktuellt väderrapport

Denna rapport gjordes för 4 timmar och 43 minuter sedan, klockan 16:45 UTC
Vind 2 kt från sydost
Temperatur 27°C
Fuktighet 54%
Tryck 1011 hPa
Sikt 10 km eller mer
Få moln på en höjd av 3300 ft, Cumulonimbus.

METAR: LHPP 191645Z 14002KT 9999 FEW033CB 27/17 Q1011

Tid: 23:28 (21:28 UTC)

Väderprognos

Denna rapport gjordes för 7 timmar och 13 minuter sedan, klockan 14:15 UTC
Prognos gäller från 19 kl. 15 UTC till 19 kl. 24 UTC
Vind 3 kt varierande vindriktning
Sikt 10 km eller mer
Brutna moln på en höjd av 3500 ft
Sannolikhet 40% :
Temporärt
från 19 kl. 15 UTC till 19 kl. 18 UTC
Vind 20 kt varierande vindriktning i byarna ända upp till 35 kt
Sikt: 3000 m
Brutna moln på en höjd av 3000 ft, Cumulonimbus.
åska, regn

TAF: LHPP 191415Z 1915/1924 VRB03KT 9999 BKN035 PROB40 TEMPO 1915/1918 VRB20G35KT 3000 TSRA BKN030CB

Aktuella väderrapporter och prognoser från 4000 flygplatser (METAR- och TAF-rapporter).

De tillgängliga stationerna syns som gula och röda prickar på kartan.

För musen över prickarna för att se namnen på stationerna.

Klicka sedan för att få väderrapporter och prognoser.

För att ändra kartan: Klicka på de gröna knapparna med ett svart kors på för att zooma in; den gröna knappen med ett streck på för att zooma ut; eller på de gröna pilarna för angränsande kartor.


METAR-TAF: